Time;durP1;ratioP1;P1;durP2;ratioP2;P2;SDS_P1;SDS_P2;PMS_P1;PMS_P2;Temp;Humidity;BMP_temperature;BMP_pressure;BME280_temperature;BME280_humidity;BME280_pressure;Samples;Min_cycle;Max_cycle;Signal;HPM_P1;HPM_P2
2023/09/27 00:00:39;;;;;;;103.63;54.45;;;18.00;94.70;;;;;;4959879;28;90235;-47
2023/09/27 00:03:04;;;;;;;102.85;54.55;;;17.90;94.80;;;;;;4960002;28;91299;-46
2023/09/27 00:05:30;;;;;;;103.38;54.40;;;17.90;94.40;;;;;;4962651;28;90078;-44
2023/09/27 00:08:01;;;;;;;102.32;54.35;;;17.90;94.60;;;;;;4963380;28;89730;-46
2023/09/27 00:10:27;;;;;;;102.80;54.22;;;17.90;95.10;;;;;;4964469;28;90696;-46
2023/09/27 00:12:52;;;;;;;102.05;54.38;;;17.90;94.50;;;;;;4959291;28;92220;-44
2023/09/27 00:15:18;;;;;;;102.57;54.63;;;17.90;94.70;;;;;;4964192;28;91464;-44
2023/09/27 00:17:43;;;;;;;103.13;54.47;;;17.90;94.90;;;;;;4960053;28;89782;-45
2023/09/27 00:20:15;;;;;;;103.68;54.40;;;17.80;94.60;;;;;;4959856;28;91772;-44
2023/09/27 00:22:42;;;;;;;103.70;54.30;;;17.80;94.90;;;;;;4966226;28;89654;-44
2023/09/27 00:25:08;;;;;;;102.53;54.38;;;17.80;95.00;;;;;;4961882;28;89642;-43
2023/09/27 00:27:35;;;;;;;102.68;54.55;;;17.80;95.00;;;;;;4961045;28;90963;-45
2023/09/27 00:30:02;;;;;;;102.93;54.65;;;17.80;94.90;;;;;;4958428;28;89395;-43
2023/09/27 00:32:28;;;;;;;102.10;54.35;;;17.80;95.00;;;;;;4959504;28;90552;-45
2023/09/27 00:34:54;;;;;;;103.15;54.58;;;17.80;94.50;;;;;;4965901;28;90709;-43
2023/09/27 00:37:20;;;;;;;102.20;54.53;;;17.70;94.40;;;;;;4961847;28;90697;-47
2023/09/27 00:39:45;;;;;;;104.63;54.33;;;17.70;94.70;;;;;;4961465;28;89690;-43
2023/09/27 00:42:12;;;;;;;102.47;54.17;;;17.80;95.40;;;;;;4965575;28;90394;-43
2023/09/27 00:44:38;;;;;;;102.22;54.45;;;17.70;95.00;;;;;;4964214;28;90120;-47
2023/09/27 00:47:05;;;;;;;103.18;54.72;;;17.70;95.30;;;;;;4964345;28;89684;-44
2023/09/27 00:49:31;;;;;;;103.25;54.72;;;17.70;94.90;;;;;;4958434;28;90114;-44
2023/09/27 00:51:57;;;;;;;103.28;54.35;;;17.70;94.80;;;;;;4958084;28;91040;-42
2023/09/27 00:54:23;;;;;;;103.45;54.55;;;17.70;95.20;;;;;;4964532;28;90859;-43
2023/09/27 00:56:51;;;;;;;102.20;54.17;;;17.70;94.90;;;;;;4963699;28;89815;-44
2023/09/27 00:59:18;;;;;;;103.13;54.80;;;17.70;95.10;;;;;;4964289;28;92323;-43
2023/09/27 01:01:45;;;;;;;104.00;54.58;;;17.70;95.10;;;;;;4962696;28;90996;-45
2023/09/27 01:04:13;;;;;;;102.60;54.58;;;17.60;95.00;;;;;;4944577;28;91755;-45
2023/09/27 01:06:40;;;;;;;102.82;54.50;;;17.60;94.90;;;;;;4963300;28;90270;-44
2023/09/27 01:09:05;;;;;;;103.32;54.70;;;17.60;94.70;;;;;;4952911;28;90589;-43
2023/09/27 01:11:32;;;;;;;102.20;54.55;;;17.60;94.80;;;;;;4957715;28;89833;-45
2023/09/27 01:13:59;;;;;;;104.32;54.58;;;17.60;95.10;;;;;;4964541;28;90124;-43
2023/09/27 01:16:24;;;;;;;103.15;54.67;;;17.50;95.30;;;;;;4960171;28;91389;-44
2023/09/27 01:18:50;;;;;;;102.53;54.63;;;17.60;94.80;;;;;;4966145;28;90268;-43
2023/09/27 01:21:19;;;;;;;104.38;54.72;;;17.50;94.80;;;;;;4955422;28;91997;-46
2023/09/27 01:23:48;;;;;;;102.93;54.75;;;17.60;94.80;;;;;;4965737;28;89715;-44
2023/09/27 01:26:36;;;;;;;104.53;54.50;;;17.50;95.20;;;;;;4961901;28;90848;-44
2023/09/27 01:29:02;;;;;;;104.55;54.88;;;17.60;95.30;;;;;;4959895;28;90320;-43
2023/09/27 01:31:27;;;;;;;105.43;54.90;;;17.60;95.10;;;;;;4960794;28;93168;-45
2023/09/27 01:33:53;;;;;;;105.28;54.35;;;17.50;94.90;;;;;;4963113;28;90096;-45
2023/09/27 01:36:19;;;;;;;103.68;54.83;;;17.50;95.20;;;;;;4971291;28;89555;-44
2023/09/27 01:38:44;;;;;;;101.53;54.25;;;17.50;95.00;;;;;;4964759;28;89935;-43
2023/09/27 01:41:10;;;;;;;102.10;54.38;;;17.50;95.10;;;;;;4961460;28;92959;-43
2023/09/27 01:43:36;;;;;;;102.82;54.53;;;17.50;94.70;;;;;;4968128;28;89089;-44
2023/09/27 01:46:01;;;;;;;104.28;54.75;;;17.50;95.10;;;;;;4957115;28;89861;-44
2023/09/27 01:48:27;;;;;;;102.10;54.60;;;17.50;94.90;;;;;;4957317;28;91209;-44
2023/09/27 01:50:52;;;;;;;103.05;54.78;;;17.50;95.30;;;;;;4968545;28;91666;-43
2023/09/27 01:53:18;;;;;;;102.53;54.63;;;17.50;95.20;;;;;;4962788;28;90859;-43
2023/09/27 01:55:44;;;;;;;102.47;54.80;;;17.50;95.30;;;;;;4961151;28;89793;-44
2023/09/27 01:58:10;;;;;;;105.30;54.42;;;17.50;95.30;;;;;;4966360;28;89666;-47
2023/09/27 02:00:36;;;;;;;102.78;54.35;;;17.50;94.90;;;;;;4967626;28;90735;-44
2023/09/27 02:03:02;;;;;;;101.85;54.33;;;17.40;94.70;;;;;;4961861;28;90740;-45
2023/09/27 02:05:30;;;;;;;103.57;54.25;;;17.40;95.30;;;;;;4969035;28;89508;-45
2023/09/27 02:07:55;;;;;;;102.80;54.75;;;17.40;94.90;;;;;;4962511;28;89232;-44
2023/09/27 02:10:21;;;;;;;102.75;54.47;;;17.40;95.20;;;;;;4963650;28;89842;-45
2023/09/27 02:12:47;;;;;;;102.93;54.85;;;17.40;95.20;;;;;;4962704;28;89877;-44
2023/09/27 02:15:15;;;;;;;104.50;55.00;;;17.40;95.20;;;;;;4963418;28;91222;-43
2023/09/27 02:17:41;;;;;;;102.63;54.75;;;17.40;95.00;;;;;;4965393;28;90272;-45
2023/09/27 02:20:13;;;;;;;102.60;54.63;;;17.40;95.30;;;;;;4966941;28;91319;-45
2023/09/27 02:22:40;;;;;;;;;;;17.40;95.20;;;;;;4958266;28;89891;-43
2023/09/27 02:25:09;;;;;;;103.10;54.40;;;17.40;95.20;;;;;;4965247;28;89989;-43
2023/09/27 02:27:36;;;;;;;102.15;54.45;;;17.40;95.20;;;;;;4964551;28;89839;-44
2023/09/27 02:30:03;;;;;;;103.70;54.97;;;17.40;95.20;;;;;;4973726;28;90486;-43
2023/09/27 02:32:29;;;;;;;103.03;54.65;;;17.40;95.50;;;;;;4963211;28;89113;-45
2023/09/27 02:34:54;;;;;;;102.70;54.58;;;17.40;95.50;;;;;;4962931;28;89878;-45
2023/09/27 02:37:20;;;;;;;101.82;54.35;;;17.30;95.30;;;;;;4963496;28;89761;-44
2023/09/27 02:39:46;;;;;;;102.80;54.60;;;17.30;94.90;;;;;;4969091;28;90841;-44
2023/09/27 02:42:12;;;;;;;102.53;54.50;;;17.30;95.40;;;;;;4964451;28;90891;-44
2023/09/27 02:44:38;;;;;;;102.57;54.05;;;17.30;95.20;;;;;;4961002;28;90837;-44
2023/09/27 02:47:04;;;;;;;103.47;54.50;;;17.30;95.30;;;;;;4944326;28;91120;-45
2023/09/27 02:49:29;;;;;;;104.20;54.42;;;17.30;95.40;;;;;;4967478;28;90193;-43
2023/09/27 02:51:55;;;;;;;102.93;54.85;;;17.30;95.00;;;;;;4968710;28;89794;-45
2023/09/27 02:54:21;;;;;;;104.45;54.63;;;17.30;95.20;;;;;;4960253;28;90197;-44
2023/09/27 02:56:47;;;;;;;103.72;54.67;;;17.20;94.90;;;;;;4974529;28;89096;-46
2023/09/27 02:59:13;;;;;;;103.93;54.63;;;17.30;95.20;;;;;;4966121;28;91163;-44
2023/09/27 03:01:43;;;;;;;102.57;54.63;;;17.30;95.40;;;;;;4966364;28;91365;-44
2023/09/27 03:04:12;;;;;;;104.20;54.92;;;17.30;95.10;;;;;;4959909;28;90678;-44
2023/09/27 03:06:39;;;;;;;102.95;54.58;;;17.30;95.00;;;;;;4958357;28;91737;-44
2023/09/27 03:09:05;;;;;;;102.22;54.40;;;17.30;95.30;;;;;;4965902;28;89842;-44
2023/09/27 03:11:31;;;;;;;104.20;54.85;;;17.20;95.30;;;;;;4969031;28;89369;-45
2023/09/27 03:13:59;;;;;;;102.18;54.45;;;17.20;94.80;;;;;;4961955;28;89941;-43
2023/09/27 03:16:24;;;;;;;102.63;54.65;;;17.20;95.10;;;;;;4961381;28;90162;-43
2023/09/27 03:18:50;;;;;;;104.60;54.67;;;17.20;95.10;;;;;;4944189;28;89999;-43
2023/09/27 03:21:17;;;;;;;101.80;54.38;;;17.20;95.00;;;;;;4963243;28;90497;-43
2023/09/27 03:23:43;;;;;;;102.53;54.38;;;17.20;95.30;;;;;;4967471;28;90546;-44
2023/09/27 03:26:09;;;;;;;105.18;54.28;;;17.20;95.00;;;;;;4967064;28;89840;-43
2023/09/27 03:28:34;;;;;;;105.00;55.10;;;17.20;95.30;;;;;;4971158;28;90887;-45
2023/09/27 03:31:00;;;;;;;103.70;54.35;;;17.20;95.40;;;;;;4962988;28;92902;-43
2023/09/27 03:33:27;;;;;;;103.20;54.67;;;17.20;95.20;;;;;;4966367;28;90337;-44
2023/09/27 03:35:53;;;;;;;102.20;54.63;;;17.20;95.20;;;;;;4964680;28;90283;-44
2023/09/27 03:38:19;;;;;;;103.05;54.42;;;17.20;95.50;;;;;;4966015;28;89480;-43
2023/09/27 03:40:44;;;;;;;102.65;54.30;;;17.20;95.20;;;;;;4969379;28;90844;-44
2023/09/27 03:43:10;;;;;;;102.50;54.65;;;17.20;95.50;;;;;;4962596;28;89443;-44
2023/09/27 03:45:36;;;;;;;101.95;54.25;;;17.20;95.60;;;;;;4962407;28;91136;-43
2023/09/27 03:48:05;;;;;;;102.25;54.58;;;17.20;94.80;;;;;;4962378;28;91310;-45
2023/09/27 03:50:30;;;;;;;102.50;54.38;;;17.20;95.00;;;;;;4964123;28;91199;-43
2023/09/27 03:52:57;;;;;;;102.40;54.53;;;17.20;95.10;;;;;;4965371;28;90633;-44
2023/09/27 03:55:22;;;;;;;101.63;54.22;;;17.20;95.00;;;;;;4962787;28;89853;-43
2023/09/27 03:57:48;;;;;;;102.25;54.45;;;17.20;95.20;;;;;;4964001;28;91320;-46
2023/09/27 04:00:16;;;;;;;105.18;54.60;;;17.20;95.20;;;;;;4963158;28;90447;-43
2023/09/27 04:02:43;;;;;;;102.30;54.47;;;17.20;95.40;;;;;;4961966;28;90666;-43
2023/09/27 04:05:09;;;;;;;102.28;54.20;;;17.20;95.40;;;;;;4961360;28;90367;-45
2023/09/27 04:07:35;;;;;;;103.47;54.30;;;17.20;95.40;;;;;;4959883;28;90694;-46
2023/09/27 04:10:01;;;;;;;102.78;54.22;;;17.20;95.10;;;;;;4964854;28;88881;-44
2023/09/27 04:12:26;;;;;;;101.20;54.05;;;17.10;95.50;;;;;;4959318;28;89697;-44
2023/09/27 04:14:52;;;;;;;101.75;54.08;;;17.20;95.70;;;;;;4966617;28;89478;-44
2023/09/27 04:17:18;;;;;;;101.88;54.17;;;17.10;95.40;;;;;;4956234;28;90844;-43
2023/09/27 04:19:44;;;;;;;102.47;54.25;;;17.10;95.70;;;;;;4963186;28;89846;-43
2023/09/27 04:22:09;;;;;;;101.18;54.42;;;17.10;95.20;;;;;;4942932;28;91183;-43
2023/09/27 04:24:36;;;;;;;102.60;54.40;;;17.10;95.00;;;;;;4964815;28;89748;-42
2023/09/27 04:27:03;;;;;;;103.65;54.72;;;17.10;95.10;;;;;;4957974;28;89776;-43
2023/09/27 04:29:29;;;;;;;102.90;54.58;;;17.10;95.50;;;;;;4956766;28;92616;-45
2023/09/27 04:31:55;;;;;;;101.93;54.38;;;17.10;95.20;;;;;;4963977;28;89740;-44
2023/09/27 04:34:20;;;;;;;99.78;53.88;;;17.00;95.10;;;;;;4961988;28;89170;-44
2023/09/27 04:36:47;;;;;;;101.50;54.58;;;17.10;95.60;;;;;;4962121;28;90285;-44
2023/09/27 04:39:15;;;;;;;101.18;54.28;;;17.00;95.30;;;;;;4966606;28;91148;-44
2023/09/27 04:41:40;;;;;;;102.85;54.75;;;17.00;95.60;;;;;;4962884;28;90952;-44
2023/09/27 04:44:06;;;;;;;100.35;54.03;;;17.00;95.40;;;;;;4964934;28;89594;-43
2023/09/27 04:46:34;;;;;;;101.93;54.28;;;17.10;96.00;;;;;;4965854;28;90782;-45
2023/09/27 04:49:01;;;;;;;102.13;54.53;;;17.10;95.80;;;;;;4969011;28;90416;-43
2023/09/27 04:51:26;;;;;;;101.97;54.85;;;17.10;95.80;;;;;;4965282;28;89827;-43
2023/09/27 04:53:52;;;;;;;104.63;54.30;;;17.10;95.80;;;;;;4962758;28;89963;-44
2023/09/27 04:56:17;;;;;;;103.25;54.85;;;17.00;95.50;;;;;;4962686;28;90261;-43
2023/09/27 04:58:43;;;;;;;101.68;54.65;;;17.00;95.80;;;;;;4953387;28;91987;-43
2023/09/27 05:01:10;;;;;;;102.03;54.55;;;17.00;96.00;;;;;;4965483;28;90365;-43
2023/09/27 05:03:37;;;;;;;104.35;54.75;;;17.00;95.60;;;;;;4961559;28;89739;-43
2023/09/27 05:06:03;;;;;;;102.43;54.95;;;17.10;96.20;;;;;;4959497;28;90913;-43
2023/09/27 05:08:29;;;;;;;103.07;54.67;;;17.10;96.30;;;;;;4956395;28;91329;-44
2023/09/27 05:10:56;;;;;;;104.85;54.75;;;17.10;96.00;;;;;;4957601;28;91537;-43
2023/09/27 05:13:22;;;;;;;102.22;54.38;;;17.10;96.20;;;;;;4967320;28;90516;-44
2023/09/27 05:15:56;;;;;;;102.40;55.17;;;17.10;96.00;;;;;;4958429;28;90603;-43
2023/09/27 05:18:22;;;;;;;105.97;54.60;;;17.10;95.50;;;;;;4960002;28;90991;-44
2023/09/27 05:20:48;;;;;;;105.05;54.55;;;17.10;96.40;;;;;;4963167;28;89666;-44
2023/09/27 05:23:14;;;;;;;103.00;54.45;;;17.10;95.90;;;;;;4961167;28;89898;-44
2023/09/27 05:25:39;;;;;;;101.57;54.65;;;17.10;96.20;;;;;;4958986;28;90064;-44
2023/09/27 05:28:05;;;;;;;103.70;54.72;;;17.00;95.70;;;;;;4947211;28;89910;-46
2023/09/27 05:30:31;;;;;;;102.68;54.47;;;17.00;96.00;;;;;;4960787;28;91503;-45
2023/09/27 05:32:57;;;;;;;104.60;54.85;;;17.00;95.80;;;;;;4969338;28;89987;-44
2023/09/27 05:35:23;;;;;;;102.55;54.35;;;17.10;95.80;;;;;;4961677;28;90199;-44
2023/09/27 05:37:49;;;;;;;102.97;54.55;;;17.10;96.00;;;;;;4961841;28;90076;-45
2023/09/27 05:40:15;;;;;;;103.40;55.13;;;17.00;95.80;;;;;;4960840;28;90002;-45
2023/09/27 05:42:41;;;;;;;104.50;55.15;;;17.00;95.00;;;;;;4957688;28;89974;-44
2023/09/27 05:45:11;;;;;;;103.95;54.63;;;17.00;95.00;;;;;;4973568;28;89767;-45
2023/09/27 05:47:37;;;;;;;102.00;54.47;;;17.00;95.60;;;;;;4964219;28;90128;-45
2023/09/27 05:50:04;;;;;;;103.10;55.08;;;17.00;95.60;;;;;;4969659;28;89717;-44
2023/09/27 05:52:30;;;;;;;104.97;55.38;;;16.90;95.40;;;;;;4964811;28;89645;-44
2023/09/27 05:54:56;;;;;;;106.03;55.83;;;16.90;95.70;;;;;;4965075;28;90608;-44
2023/09/27 05:57:22;;;;;;;105.05;55.40;;;16.90;95.60;;;;;;4958876;28;90884;-45
2023/09/27 05:59:48;;;;;;;106.28;55.47;;;17.00;95.50;;;;;;4966717;28;89819;-46
2023/09/27 06:02:17;;;;;;;105.15;55.80;;;17.00;95.90;;;;;;4961925;28;89865;-46
2023/09/27 06:04:47;;;;;;;103.70;55.80;;;17.00;96.10;;;;;;4966343;28;89664;-43
2023/09/27 06:07:14;;;;;;;104.82;54.90;;;17.10;96.40;;;;;;4962956;28;90304;-44
2023/09/27 06:09:41;;;;;;;102.65;54.92;;;17.10;95.40;;;;;;4963946;28;90041;-44
2023/09/27 06:12:07;;;;;;;104.18;55.38;;;17.00;95.10;;;;;;4972190;28;90041;-44
2023/09/27 06:14:34;;;;;;;105.97;55.65;;;17.10;95.80;;;;;;4963401;28;90077;-44
2023/09/27 06:17:01;;;;;;;103.15;54.83;;;17.10;95.80;;;;;;4962977;28;89854;-43
2023/09/27 06:19:27;;;;;;;104.72;55.42;;;17.10;95.60;;;;;;4964451;28;91480;-45
2023/09/27 06:21:52;;;;;;;104.53;55.45;;;17.00;95.40;;;;;;4969825;28;89480;-44
2023/09/27 06:24:18;;;;;;;102.97;55.35;;;17.10;95.50;;;;;;4969156;28;90951;-45
2023/09/27 06:26:43;;;;;;;105.15;55.42;;;17.10;95.60;;;;;;4957243;28;90022;-43
2023/09/27 06:29:09;;;;;;;105.28;55.65;;;17.10;95.60;;;;;;4964406;28;89892;-43
2023/09/27 06:31:35;;;;;;;104.10;55.58;;;17.10;95.70;;;;;;4964878;28;89829;-44
2023/09/27 06:34:01;;;;;;;104.28;55.63;;;17.20;95.50;;;;;;4962972;28;90405;-44
2023/09/27 06:36:29;;;;;;;105.47;55.63;;;17.10;94.70;;;;;;4964778;28;89464;-45
2023/09/27 06:38:56;;;;;;;106.30;55.72;;;17.10;94.30;;;;;;4961855;28;89699;-45
2023/09/27 06:41:21;;;;;;;106.28;55.95;;;17.10;94.80;;;;;;4959981;28;90350;-44
2023/09/27 06:43:48;;;;;;;107.68;54.88;;;17.30;95.10;;;;;;4958347;28;91060;-43
2023/09/27 06:46:15;;;;;;;103.40;54.40;;;17.30;94.30;;;;;;4946310;28;90685;-42
2023/09/27 06:48:41;;;;;;;103.57;54.47;;;17.60;95.70;;;;;;4970839;28;91214;-47
2023/09/27 06:51:07;;;;;;;106.03;54.92;;;17.70;95.20;;;;;;4967628;28;89709;-45
2023/09/27 06:53:33;;;;;;;105.10;55.65;;;17.70;94.60;;;;;;4969189;28;90038;-44
2023/09/27 06:55:59;;;;;;;103.97;54.90;;;17.80;93.30;;;;;;4967491;28;92364;-45
2023/09/27 06:58:25;;;;;;;104.13;55.20;;;17.70;93.00;;;;;;4968183;28;89518;-44
2023/09/27 07:00:52;;;;;;;105.82;55.42;;;17.70;92.80;;;;;;4964674;28;89488;-44
2023/09/27 07:03:19;;;;;;;104.80;56.00;;;17.80;94.00;;;;;;4970491;28;89861;-43
2023/09/27 07:05:46;;;;;;;105.32;55.63;;;17.90;94.10;;;;;;4965128;28;90159;-44
2023/09/27 07:08:13;;;;;;;104.13;55.30;;;18.00;93.70;;;;;;4955016;28;91152;-44
2023/09/27 07:10:40;;;;;;;105.38;55.17;;;18.10;93.60;;;;;;4947801;28;91480;-45
2023/09/27 07:13:06;;;;;;;105.00;55.40;;;18.00;93.40;;;;;;4971681;28;90136;-47
2023/09/27 07:15:32;;;;;;;104.43;55.92;;;18.10;93.50;;;;;;4968329;28;92090;-44
2023/09/27 07:17:57;;;;;;;105.80;56.05;;;18.20;93.30;;;;;;4961239;28;90378;-46
2023/09/27 07:20:33;;;;;;;106.55;55.60;;;18.10;92.50;;;;;;4968180;28;89373;-46
2023/09/27 07:22:59;;;;;;;105.00;54.88;;;18.10;93.70;;;;;;4963979;28;89947;-46
2023/09/27 07:25:25;;;;;;;107.13;56.45;;;18.20;93.20;;;;;;4959921;28;89859;-44
2023/09/27 07:27:52;;;;;;;107.20;56.15;;;18.20;92.70;;;;;;4966943;28;90547;-44
2023/09/27 07:30:18;;;;;;;106.22;56.35;;;18.20;91.90;;;;;;4975519;28;89484;-44
2023/09/27 07:32:47;;;;;;;106.00;55.90;;;18.10;92.20;;;;;;4960583;28;90800;-45
2023/09/27 07:35:16;;;;;;;106.97;55.05;;;18.10;92.40;;;;;;4965657;28;90454;-48
2023/09/27 07:37:43;;;;;;;107.28;55.83;;;18.20;92.90;;;;;;4963925;28;89680;-49
2023/09/27 07:40:14;;;;;;;108.07;55.72;;;18.30;92.60;;;;;;4964633;28;89809;-44
2023/09/27 07:42:42;;;;;;;107.30;55.33;;;18.40;92.20;;;;;;4968755;28;90297;-45
2023/09/27 07:45:16;;;;;;;106.13;55.95;;;18.40;92.60;;;;;;4964534;28;90000;-45
2023/09/27 07:47:42;;;;;;;106.35;56.17;;;18.40;92.20;;;;;;4967777;28;90282;-47
2023/09/27 07:50:10;;;;;;;105.63;55.53;;;18.50;92.30;;;;;;4967459;28;89042;-45
2023/09/27 07:52:37;;;;;;;105.90;56.13;;;18.50;91.90;;;;;;4964581;28;92518;-46
2023/09/27 07:55:04;;;;;;;111.15;55.80;;;18.50;91.20;;;;;;4963272;28;90555;-45
2023/09/27 07:57:30;;;;;;;110.50;55.95;;;18.40;92.00;;;;;;4967964;28;90810;-45
2023/09/27 07:59:56;;;;;;;105.35;54.85;;;18.50;91.70;;;;;;4970530;28;90111;-44
2023/09/27 08:02:23;;;;;;;106.85;55.97;;;18.50;91.20;;;;;;4966420;28;89544;-47
2023/09/27 08:04:49;;;;;;;105.32;55.22;;;18.60;91.60;;;;;;4965940;28;90757;-49
2023/09/27 08:07:15;;;;;;;114.55;59.60;;;18.60;92.10;;;;;;4969800;28;90004;-49
2023/09/27 08:09:42;;;;;;;113.38;58.53;;;18.30;91.30;;;;;;4965817;28;94061;-44
2023/09/27 08:12:07;;;;;;;117.55;59.88;;;17.80;93.30;;;;;;4965534;28;90183;-45
2023/09/27 08:14:36;;;;;;;117.63;60.28;;;17.70;93.60;;;;;;4965050;28;93190;-49
2023/09/27 08:17:02;;;;;;;116.07;60.00;;;17.50;93.90;;;;;;4968842;28;90323;-49
2023/09/27 08:19:28;;;;;;;116.25;58.80;;;17.50;94.60;;;;;;4966593;28;89717;-52
2023/09/27 08:21:55;;;;;;;112.53;59.55;;;17.60;94.50;;;;;;4967026;28;90557;-50
2023/09/27 08:24:21;;;;;;;115.15;59.22;;;17.60;94.40;;;;;;4967674;28;94332;-49
2023/09/27 08:26:47;;;;;;;113.95;58.42;;;17.70;94.30;;;;;;4965748;28;89696;-50
2023/09/27 08:29:13;;;;;;;117.10;59.42;;;17.70;94.00;;;;;;4965230;28;89859;-48
2023/09/27 08:31:39;;;;;;;113.45;58.92;;;17.70;94.10;;;;;;4969969;28;94831;-45
2023/09/27 08:34:05;;;;;;;109.80;58.65;;;17.70;93.90;;;;;;4967072;28;91168;-44
2023/09/27 08:36:31;;;;;;;113.38;59.38;;;17.90;94.50;;;;;;4965814;28;90147;-44
2023/09/27 08:38:57;;;;;;;116.55;59.47;;;18.00;94.40;;;;;;4966486;28;90500;-45
2023/09/27 08:41:24;;;;;;;115.75;59.05;;;17.90;94.50;;;;;;4964646;28;89605;-45
2023/09/27 08:43:50;;;;;;;116.40;59.28;;;17.70;95.10;;;;;;4966158;28;91744;-46
2023/09/27 08:46:18;;;;;;;110.88;59.13;;;17.70;94.50;;;;;;4968337;28;90501;-47
2023/09/27 08:48:45;;;;;;;114.88;59.75;;;17.70;94.70;;;;;;4963740;28;89596;-44
2023/09/27 08:51:11;;;;;;;110.78;58.97;;;17.70;95.20;;;;;;4958737;28;94265;-45
2023/09/27 08:53:38;;;;;;;114.88;59.15;;;17.80;94.80;;;;;;4961292;28;89849;-48
2023/09/27 08:56:06;;;;;;;114.97;59.88;;;17.80;94.60;;;;;;4966279;28;90606;-46
2023/09/27 08:58:34;;;;;;;115.72;59.47;;;17.90;95.30;;;;;;4962876;28;90757;-47
2023/09/27 09:01:00;;;;;;;117.63;59.63;;;18.00;94.40;;;;;;4969236;28;89330;-45
2023/09/27 09:03:26;;;;;;;117.35;59.30;;;18.10;93.80;;;;;;4964170;28;89629;-45
2023/09/27 09:05:52;;;;;;;115.82;59.58;;;18.10;94.00;;;;;;4966723;28;94932;-44
2023/09/27 09:08:19;;;;;;;113.75;56.83;;;18.10;94.00;;;;;;4970717;28;95361;-43
2023/09/27 09:10:45;;;;;;;111.05;58.70;;;18.40;94.10;;;;;;4959241;28;90702;-42
2023/09/27 09:13:11;;;;;;;115.38;57.45;;;18.70;93.50;;;;;;4965579;28;90563;-44
2023/09/27 09:15:41;;;;;;;113.05;57.80;;;18.90;92.80;;;;;;4972921;28;90322;-44
2023/09/27 09:18:11;;;;;;;118.20;58.45;;;19.10;91.80;;;;;;4964871;28;89788;-46
2023/09/27 09:20:54;;;;;;;107.97;56.97;;;19.40;91.60;;;;;;4966972;28;90771;-46
2023/09/27 09:23:33;;;;;;;116.55;57.92;;;19.60;90.90;;;;;;4963233;28;90189;-43
2023/09/27 09:26:01;;;;;;;112.65;57.67;;;19.60;91.10;;;;;;4966419;28;94007;-44
2023/09/27 09:28:26;;;;;;;113.57;59.60;;;19.60;91.50;;;;;;4965962;28;91053;-42
2023/09/27 09:30:54;;;;;;;115.18;58.65;;;19.50;91.40;;;;;;4974056;28;91061;-42
2023/09/27 09:33:21;;;;;;;119.75;59.83;;;19.50;91.50;;;;;;4967264;28;91380;-44
2023/09/27 09:35:47;;;;;;;125.57;59.78;;;19.60;90.80;;;;;;4959030;28;90896;-43
2023/09/27 09:38:22;;;;;;;114.18;57.47;;;19.60;90.80;;;;;;4967637;28;89641;-45
2023/09/27 09:40:56;;;;;;;117.13;59.17;;;19.80;90.40;;;;;;4967505;28;90099;-44
2023/09/27 09:43:36;;;;;;;119.45;59.85;;;19.70;90.50;;;;;;4966271;28;89856;-42
2023/09/27 09:46:06;;;;;;;115.07;58.13;;;19.70;90.40;;;;;;4966778;28;90228;-43
2023/09/27 09:48:35;;;;;;;125.78;59.50;;;19.80;89.90;;;;;;4968543;28;90055;-44
2023/09/27 09:51:06;;;;;;;117.68;58.45;;;19.90;88.90;;;;;;4968447;28;90127;-44
2023/09/27 09:53:42;;;;;;;122.13;58.90;;;20.10;88.80;;;;;;4961153;28;89345;-45
2023/09/27 09:56:09;;;;;;;116.07;59.10;;;20.10;87.50;;;;;;4968211;28;90561;-43
2023/09/27 09:58:45;;;;;;;118.95;59.33;;;20.00;88.70;;;;;;4968277;28;90217;-46
2023/09/27 10:01:18;;;;;;;122.22;58.47;;;20.10;87.80;;;;;;4961988;28;90826;-46
2023/09/27 10:03:47;;;;;;;118.90;58.90;;;20.20;87.90;;;;;;4967796;28;90229;-45
2023/09/27 10:06:17;;;;;;;118.70;58.97;;;20.30;86.30;;;;;;4961263;28;89765;-44
2023/09/27 10:08:45;;;;;;;119.63;60.15;;;20.50;86.40;;;;;;4968930;28;89887;-46
2023/09/27 10:11:11;;;;;;;118.40;59.20;;;20.40;86.50;;;;;;4968587;28;89925;-45
2023/09/27 10:13:39;;;;;;;124.95;60.15;;;20.40;86.10;;;;;;4962879;28;89815;-47
2023/09/27 10:16:07;;;;;;;118.82;59.15;;;20.50;86.10;;;;;;4969587;28;90633;-48
2023/09/27 10:18:39;;;;;;;117.95;59.58;;;20.60;85.50;;;;;;4968134;28;89200;-48
2023/09/27 10:21:07;;;;;;;118.45;59.95;;;20.70;84.30;;;;;;4969168;28;90138;-49
2023/09/27 10:23:52;;;;;;;119.25;59.13;;;20.70;84.50;;;;;;4967269;28;89951;-48
2023/09/27 10:26:27;;;;;;;119.72;59.63;;;20.80;85.70;;;;;;4964968;28;91463;-48
2023/09/27 10:29:03;;;;;;;117.35;59.38;;;20.80;84.40;;;;;;4974899;28;90452;-46
2023/09/27 10:31:33;;;;;;;118.30;59.17;;;20.80;84.30;;;;;;4967193;28;94080;-45
2023/09/27 10:33:59;;;;;;;120.25;59.05;;;20.90;84.00;;;;;;4965925;28;90997;-46
2023/09/27 10:36:24;;;;;;;118.53;59.05;;;20.90;84.20;;;;;;4969746;28;90920;-45
2023/09/27 10:38:50;;;;;;;114.95;58.33;;;20.90;82.60;;;;;;4968238;28;90309;-47
2023/09/27 10:41:44;;;;;;;119.90;58.53;;;20.80;84.60;;;;;;4964434;28;89944;-46
2023/09/27 10:44:10;;;;;;;116.43;58.65;;;21.00;84.10;;;;;;4966869;28;91120;-47
2023/09/27 10:46:42;;;;;;;117.65;58.05;;;20.90;84.30;;;;;;4971791;28;91939;-47
2023/09/27 10:49:09;;;;;;;113.88;57.70;;;21.00;84.40;;;;;;4971658;28;90152;-47
2023/09/27 10:51:35;;;;;;;115.97;58.75;;;21.10;84.20;;;;;;4965689;28;91066;-46
2023/09/27 10:54:06;;;;;;;112.25;58.10;;;21.10;84.10;;;;;;4961505;28;89966;-45
2023/09/27 10:56:32;;;;;;;119.32;58.58;;;21.10;84.70;;;;;;4966847;28;94149;-48
2023/09/27 10:58:58;;;;;;;115.82;57.95;;;21.20;85.00;;;;;;4966757;28;89941;-50
2023/09/27 11:01:24;;;;;;;115.95;57.92;;;21.30;83.80;;;;;;4964693;28;92755;-44
2023/09/27 11:04:00;;;;;;;111.53;57.80;;;21.30;83.30;;;;;;4969739;28;89966;-48
2023/09/27 11:06:26;;;;;;;112.65;57.67;;;21.40;82.00;;;;;;4947426;28;89823;-47
2023/09/27 11:09:03;;;;;;;117.50;57.95;;;21.40;81.70;;;;;;4951486;28;89500;-46
2023/09/27 11:11:29;;;;;;;111.97;58.17;;;21.40;82.40;;;;;;4956642;28;90079;-50
2023/09/27 11:13:54;;;;;;;113.43;58.63;;;21.40;84.20;;;;;;4949831;28;91533;-47
2023/09/27 11:16:20;;;;;;;114.07;57.63;;;21.50;82.90;;;;;;4950706;28;90755;-48
2023/09/27 11:18:48;;;;;;;115.53;58.10;;;21.50;82.20;;;;;;4950937;28;91643;-49
2023/09/27 11:21:15;;;;;;;114.13;58.13;;;21.60;81.60;;;;;;4946190;28;90065;-48
2023/09/27 11:24:12;;;;;;;116.25;58.08;;;21.60;83.20;;;;;;4956272;28;89924;-47
2023/09/27 11:26:43;;;;;;;112.22;57.47;;;21.70;83.60;;;;;;4939530;28;90367;-44
2023/09/27 11:29:08;;;;;;;115.07;57.80;;;21.80;83.10;;;;;;4951795;28;89975;-47
2023/09/27 11:31:36;;;;;;;114.05;57.90;;;21.90;83.00;;;;;;4947388;28;90582;-49
2023/09/27 11:34:19;;;;;;;111.18;57.50;;;22.00;82.90;;;;;;4950279;28;90360;-44
2023/09/27 11:36:47;;;;;;;113.80;58.22;;;22.00;82.60;;;;;;4946469;28;89681;-49
2023/09/27 11:39:16;;;;;;;113.55;57.72;;;22.00;81.10;;;;;;4950441;28;89519;-43
2023/09/27 11:41:46;;;;;;;111.47;57.67;;;22.00;81.00;;;;;;4948286;28;91273;-46
2023/09/27 11:44:21;;;;;;;111.18;58.15;;;22.10;81.60;;;;;;4946352;28;89589;-44
2023/09/27 11:46:50;;;;;;;111.28;57.92;;;22.10;82.10;;;;;;4946650;28;90224;-46
2023/09/27 11:49:17;;;;;;;111.60;57.80;;;22.00;81.40;;;;;;4947000;28;89998;-46
2023/09/27 11:51:43;;;;;;;114.40;57.97;;;22.00;82.20;;;;;;4945189;28;89902;-49
2023/09/27 11:54:12;;;;;;;113.63;57.45;;;22.00;80.70;;;;;;4948332;28;89943;-47
2023/09/27 11:56:38;;;;;;;111.80;58.15;;;22.10;82.40;;;;;;4948479;28;89459;-44
2023/09/27 11:59:04;;;;;;;112.00;57.75;;;22.00;82.70;;;;;;4948498;28;89212;-44
2023/09/27 12:01:31;;;;;;;112.70;58.28;;;22.10;82.60;;;;;;4943310;28;91035;-47
2023/09/27 12:03:57;;;;;;;117.50;58.17;;;22.10;81.50;;;;;;4950570;28;90493;-46
2023/09/27 12:06:38;;;;;;;113.45;58.30;;;22.10;81.90;;;;;;4951916;28;90903;-46
2023/09/27 12:09:05;;;;;;;120.47;58.10;;;22.10;79.90;;;;;;4968939;28;89949;-45
2023/09/27 12:11:31;;;;;;;112.22;57.92;;;22.10;80.60;;;;;;4966268;28;90008;-46
2023/09/27 12:14:07;;;;;;;113.45;58.13;;;22.20;81.20;;;;;;4972443;28;101518;-50
2023/09/27 12:16:33;;;;;;;112.20;58.25;;;22.20;79.10;;;;;;4967880;28;91697;-52
2023/09/27 12:18:59;;;;;;;111.80;58.00;;;22.30;80.50;;;;;;4974564;28;89944;-47